Time;durP1;ratioP1;P1;durP2;ratioP2;P2;SDS_P1;SDS_P2;PMS_P1;PMS_P2;Temp;Humidity;BMP_temperature;BMP_pressure;BME280_temperature;BME280_humidity;BME280_pressure;Samples;Min_cycle;Max_cycle;Signal;HPM_P1;HPM_P2
2022/08/28 00:02:22;;;;;;;29.05;12.77;;;;;;;23.53;78.82;99824.66;5106502;28;20042;-66
2022/08/28 00:04:49;;;;;;;32.80;12.80;;;;;;;23.47;78.88;99811.06;5106922;28;20123;-66
2022/08/28 00:07:15;;;;;;;27.70;13.07;;;;;;;23.47;78.16;99822.03;5107020;28;20425;-66
2022/08/28 00:09:41;;;;;;;26.30;12.55;;;;;;;23.50;77.84;99825.13;5105983;28;20076;-66
2022/08/28 00:12:07;;;;;;;21.38;11.73;;;;;;;23.49;77.65;99822.59;5088184;28;20027;-66
2022/08/28 00:14:33;;;;;;;26.00;12.43;;;;;;;23.47;77.61;99820.09;5106290;28;20016;-66
2022/08/28 00:16:59;;;;;;;23.17;12.05;;;;;;;23.46;78.12;99821.19;5108619;27;20039;-66
2022/08/28 00:19:24;;;;;;;23.67;10.77;;;;;;;;;;5088413;28;20080;-67
2022/08/28 00:21:50;;;;;;;26.35;11.90;;;;;;;23.40;78.50;99811.13;5106778;28;20048;-67
2022/08/28 00:24:16;;;;;;;30.67;11.50;;;;;;;23.32;78.50;99802.41;5106248;28;20699;-67
2022/08/28 00:29:28;;;;;;;26.80;10.55;;;;;;;23.31;77.26;99807.03;5106566;28;20088;-67
2022/08/28 00:31:55;;;;;;;24.02;10.23;;;;;;;23.28;77.07;99802.00;5087821;28;20035;-67
2022/08/28 00:34:21;;;;;;;21.38;9.40;;;;;;;23.27;76.78;99800.34;5106192;28;20026;-67
2022/08/28 00:36:47;;;;;;;20.20;8.77;;;;;;;23.17;76.23;99791.81;5105625;28;20043;-67
2022/08/28 00:39:13;;;;;;;19.67;8.85;;;;;;;23.07;75.86;99775.09;5106259;28;20078;-66
2022/08/28 00:41:40;;;;;;;17.08;8.00;;;;;;;23.26;74.12;99803.31;5105823;28;20088;-66
2022/08/28 00:44:15;;;;;;;16.30;8.05;;;;;;;23.25;73.84;99807.94;5105891;28;20111;-67
2022/08/28 00:46:43;;;;;;;17.98;7.55;;;;;;;23.24;73.39;99803.53;5087562;28;20076;-66
2022/08/28 00:49:11;;;;;;;16.17;8.23;;;;;;;23.26;73.13;99806.06;5108832;27;20038;-65
2022/08/28 00:54:21;;;;;;;;;;;;;;;23.23;73.37;99807.34;5106085;28;20033;-66
2022/08/28 00:56:48;;;;;;;15.93;8.38;;;;;;;23.23;74.19;99798.28;5087160;28;20431;-66
2022/08/28 00:59:16;;;;;;;19.75;8.13;;;;;;;23.18;74.15;99807.16;5105931;28;20524;-66
2022/08/28 01:01:44;;;;;;;13.63;7.65;;;;;;;23.21;74.13;99819.56;5103426;28;20038;-66
2022/08/28 01:04:15;;;;;;;15.98;7.80;;;;;;;23.24;73.59;99827.31;5086779;28;20047;-66
2022/08/28 01:06:42;;;;;;;17.40;8.63;;;;;;;23.16;73.75;99816.66;5105640;28;20912;-67
2022/08/28 01:09:10;;;;;;;20.95;7.63;;;;;;;23.14;73.22;99816.88;5105833;28;20027;-67
2022/08/28 01:11:39;;;;;;;15.70;7.30;;;;;;;23.06;73.51;99811.72;5088410;28;20036;-66
2022/08/28 01:14:05;;;;;;;22.45;8.77;;;;;;;22.96;74.15;99805.91;5106895;27;20031;-66
2022/08/28 01:16:31;;;;;;;14.32;6.90;;;;;;;22.98;74.05;99811.16;5106069;28;20118;-65
2022/08/28 01:18:59;;;;;;;16.05;7.30;;;;;;;22.91;74.73;99800.31;5105480;28;20119;-66
2022/08/28 01:21:32;;;;;;;14.57;7.95;;;;;;;22.92;74.36;99812.09;5104380;28;20083;-66
2022/08/28 01:24:03;;;;;;;10.93;7.35;;;;;;;22.90;75.03;99825.16;5103942;28;20387;-66
2022/08/28 01:26:29;;;;;;;13.35;7.03;;;;;;;22.74;74.99;99801.13;5089314;28;20050;-66
2022/08/28 01:28:57;;;;;;;12.27;6.93;;;;;;;22.80;74.45;99824.84;5104269;27;20032;-67
2022/08/28 01:31:25;;;;;;;14.70;7.00;;;;;;;22.70;75.14;99813.56;5105376;28;20027;-65
2022/08/28 01:33:51;;;;;;;11.68;6.85;;;;;;;22.70;75.23;99814.41;5086641;28;20067;-65
2022/08/28 01:36:19;;;;;;;13.57;7.15;;;;;;;22.65;75.41;99816.97;5106003;27;20023;-66
2022/08/28 01:38:51;;;;;;;13.48;6.80;;;;;;;22.64;75.07;99825.41;5086929;28;20042;-66
2022/08/28 01:41:17;;;;;;;12.63;6.82;;;;;;;22.48;75.47;99818.59;5107201;28;20538;-66
2022/08/28 01:43:43;;;;;;;17.60;7.45;;;;;;;22.44;75.61;99822.78;5104823;28;20055;-67
2022/08/28 01:46:11;;;;;;;16.05;7.00;;;;;;;22.39;75.43;99828.13;5105011;28;20444;-67
2022/08/28 01:48:39;;;;;;;13.25;7.03;;;;;;;22.24;75.64;99824.84;5104709;28;20711;-66
2022/08/28 01:51:06;;;;;;;12.38;6.05;;;;;;;22.18;75.26;99820.28;5104852;28;20034;-67
2022/08/28 01:53:33;;;;;;;17.27;6.68;;;;;;;22.12;75.55;99832.94;5105358;28;20035;-67
2022/08/28 01:56:00;;;;;;;11.43;6.25;;;;;;;22.13;75.59;99845.53;5104883;28;20031;-67
2022/08/28 01:58:27;;;;;;;11.23;6.43;;;;;;;22.10;74.88;99842.41;5104612;28;20035;-67
2022/08/28 02:00:52;;;;;;;15.05;6.45;;;;;;;22.03;74.95;99828.78;5104763;28;20032;-67
2022/08/28 02:03:18;;;;;;;9.20;6.30;;;;;;;22.07;74.66;99834.66;5104368;28;20120;-67
2022/08/28 02:05:44;;;;;;;10.10;6.13;;;;;;;22.02;74.99;99843.50;5105075;28;20031;-67
2022/08/28 02:08:11;;;;;;;12.88;6.32;;;;;;;21.95;75.70;99830.94;5104777;28;20055;-67
2022/08/28 02:10:39;;;;;;;14.13;6.13;;;;;;;22.00;76.02;99842.91;5104598;28;20063;-67
2022/08/28 02:13:05;;;;;;;9.18;6.40;;;;;;;21.91;76.10;99827.81;5102707;28;20019;-67
2022/08/28 02:15:33;;;;;;;12.65;7.15;;;;;;;21.95;75.21;99828.22;5086755;28;20042;-67
2022/08/28 02:17:58;;;;;;;12.15;6.50;;;;;;;21.92;75.02;99834.94;5105693;28;20028;-66
2022/08/28 02:20:25;;;;;;;9.50;6.05;;;;;;;21.92;73.88;99839.56;5104528;28;20105;-67
2022/08/28 02:22:50;;;;;;;10.05;6.25;;;;;;;21.84;72.84;99827.03;5105046;28;20027;-66
2022/08/28 02:25:16;;;;;;;11.93;6.57;;;;;;;21.90;73.35;99834.31;5104969;28;20058;-67
2022/08/28 02:27:43;;;;;;;11.90;6.35;;;;;;;21.90;73.29;99834.31;5104587;28;20128;-67
2022/08/28 02:30:10;;;;;;;11.13;6.43;;;;;;;21.91;72.23;99826.97;5104544;28;20027;-67
2022/08/28 02:32:36;;;;;;;14.82;6.63;;;;;;;21.93;71.19;99827.59;5104761;28;20514;-67
2022/08/28 02:35:02;;;;;;;12.15;5.72;;;;;;;21.89;70.83;99827.19;5108790;28;20027;-66
2022/08/28 02:37:28;;;;;;;8.43;6.00;;;;;;;21.85;71.47;99819.66;5108152;28;20026;-65
2022/08/28 02:39:55;;;;;;;13.30;6.18;;;;;;;21.86;71.48;99827.63;5108402;28;20031;-66
2022/08/28 02:42:20;;;;;;;8.60;5.28;;;;;;;21.89;70.71;99838.13;5108527;28;20092;-67
2022/08/28 02:44:46;;;;;;;11.20;5.30;;;;;;;21.82;71.01;99828.28;5107261;28;20479;-66
2022/08/28 02:47:13;;;;;;;9.93;5.93;;;;;;;21.87;70.97;99850.31;5110290;27;20031;-66
2022/08/28 02:49:40;;;;;;;12.90;5.65;;;;;;;21.86;70.63;99854.94;5108192;28;20032;-66
2022/08/28 02:52:06;;;;;;;8.90;5.85;;;;;;;21.86;70.13;99830.38;5108482;28;20054;-65
2022/08/28 02:54:31;;;;;;;14.38;6.97;;;;;;;21.90;70.17;99847.16;5106081;28;20081;-66
2022/08/28 02:56:57;;;;;;;9.43;5.25;;;;;;;21.91;70.04;99846.94;5108068;28;20032;-64
2022/08/28 02:59:23;;;;;;;7.95;5.13;;;;;;;21.88;70.11;99843.81;5107588;28;20115;-66
2022/08/28 03:01:49;;;;;;;8.68;5.22;;;;;;;21.86;70.30;99843.19;5108384;28;20497;-65
2022/08/28 03:04:15;;;;;;;12.38;6.18;;;;;;;21.91;70.58;99848.81;5108068;28;20085;-65
2022/08/28 03:06:40;;;;;;;8.23;6.05;;;;;;;21.86;71.08;99852.19;5107588;28;20435;-66
2022/08/28 03:09:06;;;;;;;9.80;6.13;;;;;;;21.87;71.25;99855.78;5108000;28;20106;-66
2022/08/28 03:11:32;;;;;;;11.77;6.57;;;;;;;21.85;71.97;99846.97;5107846;28;20027;-67
2022/08/28 03:14:00;;;;;;;11.27;5.65;;;;;;;21.85;72.24;99846.97;5107200;28;20031;-66
2022/08/28 03:16:26;;;;;;;13.60;6.10;;;;;;;21.88;72.92;99846.53;5109816;27;20036;-65
2022/08/28 03:18:51;;;;;;;13.70;6.60;;;;;;;21.85;73.34;99836.88;5088818;28;20098;-66
2022/08/28 03:21:17;;;;;;;13.02;5.75;;;;;;;21.87;73.73;99842.97;5107298;28;20092;-66
2022/08/28 03:23:42;;;;;;;11.95;6.20;;;;;;;21.92;74.49;99850.50;5088955;28;20047;-65
2022/08/28 03:26:11;;;;;;;14.35;6.95;;;;;;;21.92;75.05;99850.50;5107577;28;20040;-66
2022/08/28 03:28:44;;;;;;;12.18;5.82;;;;;;;21.95;75.60;99858.25;5107378;28;20043;-66
2022/08/28 03:31:12;;;;;;;12.13;6.65;;;;;;;21.94;76.02;99862.88;5107347;28;20043;-67
2022/08/28 03:33:40;;;;;;;9.75;5.97;;;;;;;21.92;76.80;99854.06;5107436;28;20026;-66
2022/08/28 03:36:07;;;;;;;10.70;6.32;;;;;;;21.95;77.31;99858.25;5109497;27;20049;-66
2022/08/28 03:38:33;;;;;;;8.95;6.80;;;;;;;21.91;77.96;99843.38;5109855;27;20031;-66
2022/08/28 03:41:00;;;;;;;14.82;6.70;;;;;;;21.93;78.51;99849.47;5090681;28;20104;-67
2022/08/28 03:43:26;;;;;;;14.55;7.55;;;;;;;21.90;79.31;99856.16;5108621;27;20111;-67
2022/08/28 03:45:52;;;;;;;15.35;7.00;;;;;;;21.93;79.66;99868.56;5088069;28;20039;-65
2022/08/28 03:48:19;;;;;;;15.88;6.93;;;;;;;21.93;80.31;99854.91;5107536;28;20119;-66
2022/08/28 03:50:45;;;;;;;13.20;7.38;;;;;;;21.88;80.95;99852.00;5107877;27;20102;-66
2022/08/28 03:53:11;;;;;;;13.32;6.82;;;;;;;21.88;81.36;99868.38;5107430;28;20031;-65
2022/08/28 03:55:40;;;;;;;15.15;7.53;;;;;;;21.88;81.99;99868.38;5107054;28;20452;-67
2022/08/28 03:58:05;;;;;;;16.75;7.60;;;;;;;21.87;82.85;99870.28;5107219;28;20039;-66
2022/08/28 04:00:31;;;;;;;12.57;7.60;;;;;;;21.87;83.32;99866.72;5088490;28;20035;-66
2022/08/28 04:02:56;;;;;;;12.32;7.18;;;;;;;21.87;83.80;99863.97;5107290;28;20058;-66
2022/08/28 04:05:22;;;;;;;16.17;6.95;;;;;;;21.87;84.39;99873.03;5106293;28;20106;-66
2022/08/28 04:07:47;;;;;;;15.15;7.03;;;;;;;21.90;84.87;99869.00;5107055;28;20074;-66
2022/08/28 04:10:13;;;;;;;14.90;7.20;;;;;;;21.91;85.15;99882.44;5106609;28;20031;-65
2022/08/28 04:12:39;;;;;;;11.70;7.03;;;;;;;21.92;85.30;99880.53;5107762;27;20127;-66
2022/08/28 04:15:05;;;;;;;19.02;7.35;;;;;;;21.98;85.62;99893.31;5107184;28;20729;-64
2022/08/28 04:17:30;;;;;;;9.82;6.65;;;;;;;21.96;85.50;99887.25;5107365;28;20406;-65
2022/08/28 04:19:56;;;;;;;10.77;6.85;;;;;;;22.05;85.46;99897.69;5106390;28;20055;-65
2022/08/28 04:22:21;;;;;;;11.15;7.03;;;;;;;22.05;85.21;99894.13;5106868;28;20114;-64
2022/08/28 04:24:47;;;;;;;17.48;7.88;;;;;;;22.07;85.33;99892.88;5104589;28;20036;-65
2022/08/28 04:27:13;;;;;;;13.75;7.00;;;;;;;22.09;85.77;99903.56;5111028;27;20027;-65
2022/08/28 04:29:39;;;;;;;12.70;6.50;;;;;;;22.12;85.68;99912.16;5110323;27;20087;-65
2022/08/28 04:32:05;;;;;;;12.73;7.25;;;;;;;22.20;85.47;99924.72;5108223;27;20035;-65
2022/08/28 04:34:30;;;;;;;13.20;7.35;;;;;;;22.16;85.70;99921.56;5106651;28;20027;-65
2022/08/28 04:36:56;;;;;;;12.05;7.38;;;;;;;22.13;86.39;99924.78;5106037;28;20041;-64
2022/08/28 04:39:21;;;;;;;14.60;7.50;;;;;;;22.13;86.73;99923.94;5106793;28;20031;-64
2022/08/28 04:41:48;;;;;;;12.50;7.40;;;;;;;22.12;87.18;99916.78;5088048;28;20020;-65
2022/08/28 04:44:14;;;;;;;16.05;7.53;;;;;;;22.15;87.29;99921.78;5106148;28;20051;-65
2022/08/28 04:46:39;;;;;;;16.00;7.70;;;;;;;22.12;87.65;99912.16;5107051;28;20111;-65
2022/08/28 04:49:05;;;;;;;10.85;7.22;;;;;;;22.19;87.48;99909.41;5106290;28;20055;-65
2022/08/28 04:51:31;;;;;;;13.07;7.80;;;;;;;22.19;87.58;99907.47;5106771;28;20034;-66
2022/08/28 04:53:57;;;;;;;13.85;7.10;;;;;;;22.36;87.02;99921.47;5106682;28;20127;-66
2022/08/28 04:56:23;;;;;;;10.50;7.05;;;;;;;22.41;87.06;99923.53;5085855;28;20059;-67
2022/08/28 04:58:48;;;;;;;9.18;7.05;;;;;;;22.44;87.09;99921.19;5107865;27;20055;-66
2022/08/28 05:01:20;;;;;;;16.00;7.40;;;;;;;22.55;87.21;99933.34;5106076;28;20039;-67
2022/08/28 05:03:47;;;;;;;12.50;6.80;;;;;;;22.54;87.34;99931.69;5105775;28;20032;-67
2022/08/28 05:06:14;;;;;;;15.57;8.00;;;;;;;22.58;87.35;99935.66;5105427;28;20027;-65
2022/08/28 05:08:41;;;;;;;11.40;7.28;;;;;;;22.60;87.15;99937.09;5105775;28;20046;-66
2022/08/28 05:11:14;;;;;;;16.70;7.50;;;;;;;22.70;87.09;99936.63;5086706;28;20028;-66
2022/08/28 05:13:39;;;;;;;9.20;6.95;;;;;;;22.78;86.78;99936.34;5105307;28;20102;-65
2022/08/28 05:16:05;;;;;;;16.35;7.57;;;;;;;22.89;86.32;99938.38;5102994;28;20103;-68
2022/08/28 05:18:30;;;;;;;13.43;6.55;;;;;;;22.89;86.25;99927.44;5105407;28;20023;-67
2022/08/28 05:20:56;;;;;;;14.70;6.38;;;;;;;22.98;85.68;99939.72;5104604;28;20039;-66
2022/08/28 05:23:22;;;;;;;13.25;7.13;;;;;;;23.04;85.58;99942.44;5105252;28;20027;-66
2022/08/28 05:25:47;;;;;;;16.08;7.05;;;;;;;23.01;85.75;99915.53;5104881;28;20414;-66
2022/08/28 05:28:18;;;;;;;10.23;6.72;;;;;;;23.13;85.66;99934.78;5086265;28;20029;-66
2022/08/28 05:30:44;;;;;;;10.50;7.47;;;;;;;23.31;83.73;99943.06;5103022;28;20046;-65
2022/08/28 05:33:12;;;;;;;7.95;6.13;;;;;;;23.26;83.66;99940.16;5104784;28;20034;-66
2022/08/28 05:35:40;;;;;;;10.70;6.22;;;;;;;23.39;83.08;99940.03;5104789;28;20054;-64
2022/08/28 05:38:07;;;;;;;17.25;6.70;;;;;;;23.40;83.02;99945.28;5104988;28;20031;-66
2022/08/28 05:40:33;;;;;;;13.57;6.70;;;;;;;23.41;82.99;99935.97;5104860;28;20124;-66
2022/08/28 05:42:58;;;;;;;13.88;6.15;;;;;;;23.58;81.59;99950.78;5106228;28;20028;-66
2022/08/28 05:45:24;;;;;;;13.25;7.00;;;;;;;23.70;80.68;99939.91;5104422;28;20024;-66
2022/08/28 05:47:50;;;;;;;8.20;6.40;;;;;;;23.75;80.29;99943.63;5104770;28;20125;-67
2022/08/28 05:50:16;;;;;;;13.00;5.90;;;;;;;23.87;80.12;99944.53;5104452;28;20027;-65
2022/08/28 05:52:42;;;;;;;11.23;6.00;;;;;;;24.03;77.31;99949.44;5104848;28;20054;-66
2022/08/28 05:55:10;;;;;;;12.02;6.38;;;;;;;24.07;76.70;99947.88;5104113;28;20032;-65
2022/08/28 05:57:37;;;;;;;16.33;6.38;;;;;;;24.15;77.04;99953.03;5104399;28;20107;-66
2022/08/28 06:00:04;;;;;;;8.98;5.32;;;;;;;24.31;76.46;99962.50;5104657;28;20027;-65
2022/08/28 06:02:29;;;;;;;10.18;6.00;;;;;;;24.41;76.21;99955.41;5104177;28;20027;-65
2022/08/28 06:04:56;;;;;;;10.95;5.40;;;;;;;24.58;74.83;99963.00;5104727;28;20043;-65
2022/08/28 06:07:22;;;;;;;10.50;5.40;;;;;;;24.75;73.41;99958.53;5104069;28;20103;-65
2022/08/28 06:09:47;;;;;;;11.30;5.70;;;;;;;24.94;72.45;99965.63;5110780;27;20134;-66
2022/08/28 06:12:14;;;;;;;13.80;5.40;;;;;;;25.04;72.02;99954.88;5108245;28;20023;-66
2022/08/28 06:14:40;;;;;;;10.32;5.85;;;;;;;25.32;69.00;99964.16;5090257;28;20762;-65
2022/08/28 06:17:05;;;;;;;9.80;5.18;;;;;;;25.37;67.52;99952.47;5108479;28;20141;-65
2022/08/28 06:19:34;;;;;;;10.18;4.85;;;;;;;25.48;66.50;99955.19;5089301;28;20027;-66
2022/08/28 06:22:02;;;;;;;8.68;5.15;;;;;;;25.59;65.82;99964.50;5105120;28;20040;-67
2022/08/28 06:24:29;;;;;;;10.43;4.82;;;;;;;25.69;65.42;99959.22;5107252;28;20028;-66
2022/08/28 06:26:54;;;;;;;15.10;4.95;;;;;;;25.81;65.05;99968.28;5107536;28;20042;-66
2022/08/28 06:29:21;;;;;;;8.52;4.53;;;;;;;25.97;64.67;99967.56;5107339;28;20020;-66
2022/08/28 06:31:51;;;;;;;6.32;4.85;;;;;;;26.15;64.29;99972.91;5108288;28;20035;-66
2022/08/28 06:34:17;;;;;;;9.70;4.47;;;;;;;26.33;63.85;99969.97;5105621;28;20583;-66
2022/08/28 06:36:43;;;;;;;7.45;4.65;;;;;;;26.43;62.84;99964.66;5107615;28;20047;-66
2022/08/28 06:39:10;;;;;;;11.70;5.07;;;;;;;26.62;61.70;99963.41;5088614;28;20055;-65
2022/08/28 06:41:39;;;;;;;8.20;4.95;;;;;;;26.78;61.32;99967.25;5107017;28;20165;-65
2022/08/28 06:44:06;;;;;;;8.43;4.93;;;;;;;26.94;60.41;99967.28;5107333;28;20110;-66
2022/08/28 06:46:33;;;;;;;8.02;5.03;;;;;;;27.08;58.26;99963.13;5104881;28;20023;-64
2022/08/28 06:49:02;;;;;;;7.85;4.60;;;;;;;27.21;57.05;99959.22;5107150;28;20027;-65
2022/08/28 06:51:27;;;;;;;7.93;4.78;;;;;;;27.31;56.62;99962.16;5093420;28;20549;-66
2022/08/28 06:53:53;;;;;;;12.77;4.47;;;;;;;27.44;57.08;99964.56;5107518;28;20012;-67
2022/08/28 06:56:20;;;;;;;15.88;4.72;;;;;;;27.54;56.59;99965.56;5107282;28;20032;-65
2022/08/28 06:58:48;;;;;;;10.70;4.72;;;;;;;27.66;56.10;99968.22;5107369;28;20114;-65
2022/08/28 07:01:24;;;;;;;8.63;3.97;;;;;;;27.78;55.65;99961.50;5088498;28;20038;-66
2022/08/28 07:03:51;;;;;;;10.77;4.50;;;;;;;27.87;55.19;99970.19;5106533;28;20031;-67
2022/08/28 07:06:18;;;;;;;9.90;4.43;;;;;;;28.01;54.84;99966.78;5107221;28;20027;-66
2022/08/28 07:08:44;;;;;;;10.95;4.75;;;;;;;28.06;54.29;99957.75;5107271;28;20494;-67
2022/08/28 07:11:27;;;;;;;11.75;4.45;;;;;;;28.10;53.55;99964.41;5107252;28;20475;-66
2022/08/28 07:13:54;;;;;;;10.30;4.43;;;;;;;28.15;52.43;99951.53;5087623;28;20027;-66
2022/08/28 07:16:25;;;;;;;13.63;4.97;;;;;;;28.33;52.22;99964.16;5087510;28;20509;-66
2022/08/28 07:18:51;;;;;;;13.07;4.30;;;;;;;28.31;52.30;99953.38;5106741;28;20051;-66
2022/08/28 07:21:16;;;;;;;11.20;4.15;;;;;;;28.39;53.02;99963.13;5105384;27;20051;-65
2022/08/28 07:23:43;;;;;;;12.25;4.50;;;;;;;28.31;52.10;99956.13;5109085;27;20498;-65
2022/08/28 07:26:13;;;;;;;10.07;4.93;;;;;;;28.35;52.33;99957.31;5106463;28;20039;-65
2022/08/28 07:28:39;;;;;;;9.55;4.60;;;;;;;28.30;51.79;99959.97;5106478;28;20043;-66
2022/08/28 07:31:08;;;;;;;9.43;4.60;;;;;;;28.28;51.89;99964.09;5088375;28;20024;-66
2022/08/28 07:33:35;;;;;;;14.23;4.20;;;;;;;28.13;51.45;99944.59;5104028;28;20465;-66
2022/08/28 07:36:02;;;;;;;8.23;4.32;;;;;;;28.16;51.44;99958.72;5106532;28;20067;-65
2022/08/28 07:38:27;;;;;;;9.50;4.65;;;;;;;28.19;51.77;99965.63;5088696;28;20050;-66
2022/08/28 07:40:54;;;;;;;12.52;4.68;;;;;;;28.17;52.24;99959.53;5106043;28;20700;-66
2022/08/28 07:46:07;;;;;;;13.40;5.00;;;;;;;28.00;51.41;99970.66;5107073;28;20080;-65
2022/08/28 07:48:34;;;;;;;11.07;5.03;;;;;;;28.03;50.80;99972.91;5107265;28;20627;-66
2022/08/28 07:51:00;;;;;;;13.30;5.00;;;;;;;28.01;50.20;99958.53;5108151;27;20111;-66
2022/08/28 07:53:26;;;;;;;9.13;4.40;;;;;;;28.12;50.38;99968.59;5106676;28;20091;-66
2022/08/28 07:55:52;;;;;;;12.35;5.03;;;;;;;28.14;49.98;99962.81;5107235;28;20035;-64
2022/08/28 07:58:19;;;;;;;7.68;4.60;;;;;;;28.18;49.69;99952.94;5106774;28;20050;-67
2022/08/28 08:00:45;;;;;;;8.45;5.00;;;;;;;28.40;49.20;99957.34;5107347;28;20074;-67
2022/08/28 08:03:11;;;;;;;7.10;4.20;;;;;;;28.53;48.67;99956.97;5106366;28;20051;-66
2022/08/28 08:05:36;;;;;;;12.15;5.18;;;;;;;28.68;48.57;99953.53;5107369;28;20420;-65
2022/08/28 08:08:02;;;;;;;8.05;4.40;;;;;;;28.83;47.78;99958.34;5106809;28;20050;-66
2022/08/28 08:10:28;;;;;;;9.30;4.13;;;;;;;28.86;47.51;99939.34;5106558;28;20046;-66
2022/08/28 08:12:53;;;;;;;11.20;4.68;;;;;;;29.09;47.77;99960.28;5106410;28;20023;-66
2022/08/28 08:15:19;;;;;;;9.25;4.20;;;;;;;29.11;47.07;99949.81;5106468;28;20031;-67
2022/08/28 08:17:44;;;;;;;8.07;4.30;;;;;;;29.18;46.39;99942.13;5106361;28;20081;-66
2022/08/28 08:20:10;;;;;;;8.00;4.55;;;;;;;29.34;45.92;99954.97;5087944;28;20104;-65
2022/08/28 08:22:36;;;;;;;8.73;4.15;;;;;;;29.42;45.82;99946.16;5106286;28;20027;-64
2022/08/28 08:25:03;;;;;;;10.68;4.53;;;;;;;29.55;44.81;99965.91;5088510;28;20501;-65
2022/08/28 08:27:32;;;;;;;7.47;4.43;;;;;;;29.59;44.91;99966.16;5101897;28;20055;-66
2022/08/28 08:29:58;;;;;;;10.68;4.55;;;;;;;29.69;44.58;99964.34;5103720;28;20526;-65
2022/08/28 08:32:23;;;;;;;9.65;4.60;;;;;;;29.72;43.82;99966.56;5108381;27;20114;-65
2022/08/28 08:34:52;;;;;;;9.75;4.32;;;;;;;29.75;43.83;99965.19;5106341;28;20050;-66
2022/08/28 08:37:18;;;;;;;11.43;5.65;;;;;;;29.72;44.30;99958.28;5106273;28;20094;-66
2022/08/28 08:39:43;;;;;;;14.25;5.55;;;;;;;29.74;43.80;99969.91;5106268;28;20115;-66
2022/08/28 08:42:30;;;;;;;10.35;4.45;;;;;;;29.69;43.37;99977.34;5105777;28;20043;-66
2022/08/28 08:44:58;;;;;;;9.98;4.72;;;;;;;29.68;43.04;99982.03;5094705;27;20059;-67
2022/08/28 08:47:31;;;;;;;11.23;4.63;;;;;;;29.59;43.28;99975.31;5085428;28;20138;-67
2022/08/28 08:50:05;;;;;;;8.52;5.35;;;;;;;29.64;42.77;99989.22;5103667;28;20027;-66
2022/08/28 08:52:49;;;;;;;7.45;5.03;;;;;;;29.63;42.93;99964.59;5103000;28;20027;-67
2022/08/28 08:55:23;;;;;;;9.27;4.68;;;;;;;29.74;43.57;99985.66;5104923;28;20028;-67
2022/08/28 08:58:32;;;;;;;9.23;4.03;;;;;;;29.75;42.76;99995.63;5099676;28;20023;-67
2022/08/28 09:01:06;;;;;;;7.65;4.57;;;;;;;29.82;43.61;99990.72;5089490;28;20084;-66
2022/08/28 09:03:58;;;;;;;9.38;4.47;;;;;;;29.89;43.60;99991.31;5102314;28;20066;-67
2022/08/28 09:07:08;;;;;;;7.15;4.03;;;;;;;29.95;43.42;99987.47;5096966;28;20028;-67
2022/08/28 09:09:43;;;;;;;8.18;4.78;;;;;;;29.95;43.63;99977.22;5083675;28;20048;-67
2022/08/28 09:12:24;;;;;;;7.60;5.05;;;;;;;30.05;43.15;99981.97;5092427;28;20053;-67
2022/08/28 09:15:07;;;;;;;10.70;4.50;;;;;;;30.11;43.05;99972.59;5101954;27;20692;-66
2022/08/28 09:17:49;;;;;;;7.68;4.50;;;;;;;30.16;43.00;99986.44;5101989;28;20508;-67
2022/08/28 09:20:20;;;;;;;10.82;4.53;;;;;;;30.17;42.86;99977.91;5104295;28;20209;-67
2022/08/28 09:22:47;;;;;;;4.93;4.05;;;;;;;30.16;42.16;99984.53;5079562;28;20068;-68
2022/08/28 09:25:51;;;;;;;9.20;4.75;;;;;;;30.25;42.11;99987.63;5082277;28;20565;-67
2022/08/28 09:28:18;;;;;;;9.63;4.88;;;;;;;30.32;42.13;99986.28;5102423;28;20031;-68
2022/08/28 09:30:53;;;;;;;7.32;4.80;;;;;;;30.43;42.05;99985.19;5103029;27;20062;-67
2022/08/28 09:33:31;;;;;;;9.05;5.03;;;;;;;30.55;42.05;99999.66;5077771;28;20053;-66
2022/08/28 09:35:56;;;;;;;10.85;4.60;;;;;;;30.58;41.22;99995.50;5101735;28;20028;-66
2022/08/28 09:38:24;;;;;;;7.30;4.45;;;;;;;30.62;41.26;99993.03;5103000;28;20028;-67
2022/08/28 09:43:53;;;;;;;9.07;5.20;;;;;;;30.74;41.66;99990.84;5097032;28;20439;-67
2022/08/28 09:46:23;;;;;;;9.00;4.60;;;;;;;30.89;40.54;99999.19;5100804;28;20079;-67
2022/08/28 09:48:51;;;;;;;9.30;4.38;;;;;;;31.00;39.70;99990.63;5102961;28;20032;-67
2022/08/28 09:51:19;;;;;;;8.82;4.60;;;;;;;31.05;40.13;99998.09;5105012;28;20433;-66
2022/08/28 09:53:51;;;;;;;9.82;4.35;;;;;;;31.09;39.73;99991.75;5099762;28;20027;-67
2022/08/28 09:56:34;;;;;;;6.60;4.72;;;;;;;31.09;39.84;99980.66;5083259;28;20398;-67
2022/08/28 09:59:05;;;;;;;11.48;4.88;;;;;;;31.17;39.98;99990.38;5081257;28;20181;-65
2022/08/28 10:01:53;;;;;;;6.43;4.40;;;;;;;31.26;39.65;99983.97;5102096;28;20031;-66
2022/08/28 10:04:43;;;;;;;8.30;4.53;;;;;;;31.37;39.63;99990.38;5101541;28;20024;-67
2022/08/28 10:07:11;;;;;;;7.35;4.40;;;;;;;31.40;39.44;99993.41;5099666;28;20117;-67
2022/08/28 10:10:08;;;;;;;10.18;4.85;;;;;;;31.53;39.72;99992.03;5101693;28;20131;-66
2022/08/28 10:12:58;;;;;;;8.50;4.35;;;;;;;31.63;39.56;99983.72;5103671;28;20441;-67
2022/08/28 10:15:42;;;;;;;9.38;4.57;;;;;;;31.73;39.67;99986.47;5101421;28;20027;-67
2022/08/28 10:18:52;;;;;;;7.43;4.03;;;;;;;31.83;39.14;99983.69;5101954;28;20031;-65
2022/08/28 10:21:27;;;;;;;9.13;4.10;;;;;;;31.90;39.30;99965.63;5115118;28;20055;-66
2022/08/28 10:24:20;;;;;;;8.63;5.22;;;;;;;32.04;39.11;99979.72;5103728;28;20051;-67
2022/08/28 10:26:53;;;;;;;10.32;4.60;;;;;;;32.20;38.20;99973.00;5101633;28;20031;-67
2022/08/28 10:29:47;;;;;;;6.97;5.07;;;;;;;32.23;37.64;99973.28;5099699;28;20028;-67
2022/08/28 10:32:28;;;;;;;10.35;6.35;;;;;;;32.23;38.06;99976.06;5102785;28;20106;-67
2022/08/28 10:35:05;;;;;;;13.38;5.28;;;;;;;32.17;38.00;99965.25;5103445;28;20035;-66
2022/08/28 10:37:58;;;;;;;9.48;5.38;;;;;;;32.15;37.96;99967.50;5099245;28;20035;-68
2022/08/28 10:40:28;;;;;;;5.45;4.60;;;;;;;32.16;38.29;99967.22;5099358;28;20028;-67
2022/08/28 10:43:35;;;;;;;14.10;5.47;;;;;;;32.22;38.24;99977.19;5083772;28;20035;-66
2022/08/28 10:46:11;;;;;;;10.88;5.40;;;;;;;32.33;38.11;99973.25;5079671;28;20036;-67
2022/08/28 10:48:42;;;;;;;9.93;5.35;;;;;;;32.30;38.29;99973.78;5099614;28;20034;-67
2022/08/28 10:51:27;;;;;;;10.00;5.05;;;;;;;32.30;38.29;99973.78;5104318;28;20022;-65
2022/08/28 10:53:58;;;;;;;8.82;5.95;;;;;;;32.29;38.25;99961.03;5102378;28;20093;-68
2022/08/28 10:56:29;;;;;;;9.65;5.65;;;;;;;32.33;37.81;99952.97;5107268;28;20031;-67
2022/08/28 10:58:58;;;;;;;15.50;5.57;;;;;;;32.62;37.01;99958.69;5086012;28;20121;-66
2022/08/28 11:01:34;;;;;;;10.00;4.97;;;;;;;32.57;37.45;99952.00;5085451;28;20027;-66
2022/08/28 11:04:04;;;;;;;9.70;5.00;;;;;;;32.52;37.64;99942.88;5106474;28;20059;-67
2022/08/28 11:07:02;;;;;;;10.10;5.65;;;;;;;32.57;37.93;99951.19;5107571;27;20035;-67
2022/08/28 11:09:27;;;;;;;9.85;5.38;;;;;;;32.63;37.81;99952.00;5102006;28;20400;-67
2022/08/28 11:12:03;;;;;;;11.50;4.95;;;;;;;32.65;37.99;99944.22;5106136;28;20028;-67
2022/08/28 11:14:40;;;;;;;11.77;5.35;;;;;;;32.79;37.76;99950.78;5085953;28;20035;-67
2022/08/28 11:17:10;;;;;;;9.52;5.50;;;;;;;32.91;37.50;99952.09;5087920;28;20031;-68
2022/08/28 11:19:35;;;;;;;12.30;5.25;;;;;;;32.90;37.53;99949.59;5102921;28;20028;-67
2022/08/28 11:22:26;;;;;;;6.63;5.32;;;;;;;32.88;37.76;99947.09;5104625;27;20050;-66
2022/08/28 11:25:15;;;;;;;10.60;6.20;;;;;;;32.90;37.86;99950.44;5111355;27;20027;-66
2022/08/28 11:28:16;;;;;;;8.10;6.00;;;;;;;32.92;37.53;99951.00;5102737;28;20032;-67
2022/08/28 11:30:45;;;;;;;11.55;5.78;;;;;;;33.03;37.20;99935.88;5086757;28;20039;-66
2022/08/28 11:33:49;;;;;;;13.07;5.38;;;;;;;33.10;36.82;99944.72;5089011;28;20065;-66
2022/08/28 11:36:20;;;;;;;11.52;5.07;;;;;;;33.20;36.55;99941.03;5106027;27;20108;-67
2022/08/28 11:38:52;;;;;;;8.45;6.13;;;;;;;33.10;36.92;99941.94;5104259;28;20127;-67
2022/08/28 11:41:21;;;;;;;7.68;4.95;;;;;;;33.04;36.90;99931.16;5102401;28;20032;-66
2022/08/28 11:44:11;;;;;;;8.48;4.60;;;;;;;33.00;37.24;99933.69;5082757;28;20121;-66
2022/08/28 11:46:46;;;;;;;7.53;4.50;;;;;;;33.00;37.28;99930.91;5075177;28;20070;-67
2022/08/28 11:49:33;;;;;;;9.27;4.95;;;;;;;33.10;37.36;99929.97;5105219;28;20035;-67
2022/08/28 11:52:40;;;;;;;10.25;5.13;;;;;;;33.16;37.35;99931.59;5085468;27;20126;-67
2022/08/28 11:55:11;;;;;;;11.95;6.35;;;;;;;33.35;36.82;99930.59;5086719;28;20027;-68